createdAt,value
2023-05-06T00:00:24.757Z,91.18
2023-05-06T00:02:52.212Z,91.48
2023-05-06T00:05:19.372Z,91.69
2023-05-06T00:07:46.238Z,91.85
2023-05-06T00:10:13.119Z,92.25
2023-05-06T00:12:41.460Z,92.47
2023-05-06T00:15:08.905Z,92.66
2023-05-06T00:17:36.015Z,92.60
2023-05-06T00:20:03.450Z,92.51
2023-05-06T00:22:30.927Z,92.43
2023-05-06T00:25:00.541Z,92.63
2023-05-06T00:27:27.504Z,92.80
2023-05-06T00:29:54.364Z,92.80
2023-05-06T00:32:21.197Z,92.53
2023-05-06T00:34:48.085Z,92.36
2023-05-06T00:37:15.006Z,92.12
2023-05-06T00:39:41.896Z,91.82
2023-05-06T00:42:08.688Z,91.64
2023-05-06T00:44:36.543Z,91.61
2023-05-06T00:47:03.475Z,91.83
2023-05-06T00:49:31.061Z,91.88
2023-05-06T00:51:58.447Z,92.06
2023-05-06T00:54:26.333Z,92.15
2023-05-06T00:56:53.630Z,92.38
2023-05-06T00:59:25.549Z,92.44
2023-05-06T01:01:53.409Z,92.59
2023-05-06T01:04:22.096Z,92.37
2023-05-06T01:07:07.586Z,92.28
2023-05-06T01:10:00.590Z,92.56
2023-05-06T01:12:32.421Z,92.39
2023-05-06T01:15:05.901Z,92.23
2023-05-06T01:17:34.127Z,92.51
2023-05-06T01:20:01.013Z,92.58
2023-05-06T01:22:33.638Z,92.68
2023-05-06T01:25:01.134Z,92.66
2023-05-06T01:27:28.037Z,92.29
2023-05-06T01:29:54.831Z,92.32
2023-05-06T01:32:36.205Z,92.27
2023-05-06T01:35:55.015Z,92.19
2023-05-06T01:38:45.633Z,91.94
2023-05-06T01:41:15.505Z,91.73
2023-05-06T01:43:44.043Z,91.47
2023-05-06T01:46:13.083Z,91.59
2023-05-06T01:48:40.127Z,91.66
2023-05-06T01:51:06.965Z,91.58
2023-05-06T01:53:34.413Z,91.65
2023-05-06T01:56:01.495Z,91.74
2023-05-06T01:58:28.508Z,91.55
2023-05-06T02:00:55.300Z,91.56
2023-05-06T02:03:22.737Z,91.67
2023-05-06T02:05:49.817Z,91.79
2023-05-06T02:08:16.914Z,91.74
2023-05-06T02:10:45.450Z,91.73
2023-05-06T02:13:12.644Z,91.48
2023-05-06T02:15:39.550Z,91.58
2023-05-06T02:18:08.379Z,91.45
2023-05-06T02:20:35.278Z,91.58
2023-05-06T02:23:02.604Z,91.67
2023-05-06T02:25:31.031Z,91.57
2023-05-06T02:27:57.819Z,91.30
2023-05-06T02:30:24.685Z,91.02
2023-05-06T02:32:52.058Z,90.86
2023-05-06T02:35:19.018Z,90.57
2023-05-06T02:37:45.891Z,90.45
2023-05-06T02:40:12.932Z,90.54
2023-05-06T02:42:40.219Z,90.48
2023-05-06T02:45:08.021Z,90.49
2023-05-06T02:47:35.621Z,90.10
2023-05-06T02:50:04.216Z,89.74
2023-05-06T02:52:32.859Z,89.55
2023-05-06T02:55:00.615Z,89.15
2023-05-06T02:57:27.529Z,88.82
2023-05-06T02:59:54.343Z,89.03
2023-05-06T03:02:21.314Z,88.49
2023-05-06T03:04:48.268Z,88.55
2023-05-06T03:07:15.591Z,88.22
2023-05-06T03:09:44.275Z,87.81
2023-05-06T03:12:11.364Z,87.66
2023-05-06T03:14:38.607Z,87.42
2023-05-06T03:17:05.442Z,87.07
2023-05-06T03:19:35.906Z,86.79
2023-05-06T03:22:03.413Z,86.41
2023-05-06T03:24:32.015Z,85.96
2023-05-06T03:26:59.069Z,85.68
2023-05-06T03:29:26.418Z,85.36
2023-05-06T03:31:55.706Z,85.24
2023-05-06T03:34:22.557Z,85.03
2023-05-06T03:36:49.577Z,84.85
2023-05-06T03:39:16.815Z,84.29
2023-05-06T03:41:45.046Z,83.57
2023-05-06T03:44:12.528Z,83.87
2023-05-06T03:46:41.235Z,83.42
2023-05-06T03:49:08.225Z,83.02
2023-05-06T03:51:35.600Z,82.59
2023-05-06T03:54:03.289Z,81.65
2023-05-06T03:56:30.999Z,81.10
2023-05-06T03:58:58.480Z,80.66
2023-05-06T04:01:26.215Z,80.22
2023-05-06T04:03:54.123Z,79.88
2023-05-06T04:06:21.483Z,79.01
2023-05-06T04:08:48.424Z,78.26
2023-05-06T04:11:16.376Z,77.56
2023-05-06T04:13:43.365Z,77.54
2023-05-06T04:16:14.014Z,77.38
2023-05-06T04:18:44.080Z,77.08
2023-05-06T04:21:13.460Z,76.66
2023-05-06T04:23:47.633Z,76.49
2023-05-06T04:26:16.545Z,76.10
2023-05-06T04:28:44.228Z,75.88
2023-05-06T04:31:13.928Z,75.48
2023-05-06T04:33:44.520Z,74.92
2023-05-06T04:36:15.338Z,74.69
2023-05-06T04:38:54.376Z,74.62
2023-05-06T04:41:21.809Z,74.81
2023-05-06T04:43:48.842Z,74.74
2023-05-06T04:46:24.801Z,74.63
2023-05-06T04:48:52.170Z,74.70
2023-05-06T04:51:19.897Z,74.51
2023-05-06T04:53:46.797Z,74.39
2023-05-06T04:56:14.068Z,74.24
2023-05-06T04:58:40.889Z,73.77
2023-05-06T05:01:09.286Z,73.32
2023-05-06T05:03:36.265Z,72.92
2023-05-06T05:06:04.429Z,73.18
2023-05-06T05:08:31.662Z,73.13
2023-05-06T05:10:58.503Z,72.90
2023-05-06T05:13:26.876Z,72.56
2023-05-06T05:15:59.326Z,72.58
2023-05-06T05:18:28.919Z,72.61
2023-05-06T05:20:58.536Z,72.66
2023-05-06T05:23:30.876Z,72.23
2023-05-06T05:25:58.398Z,70.99
2023-05-06T05:28:25.408Z,69.78
2023-05-06T05:30:52.878Z,68.89
2023-05-06T05:33:20.280Z,68.42
2023-05-06T05:35:47.114Z,67.85
2023-05-06T05:38:15.642Z,67.60
2023-05-06T05:40:43.837Z,66.75
2023-05-06T05:43:10.882Z,65.66
2023-05-06T05:53:44.362Z,64.67
2023-05-06T05:56:11.950Z,63.36
2023-05-06T05:58:39.628Z,63.12
2023-05-06T06:01:06.601Z,63.13
2023-05-06T06:03:33.702Z,62.50
2023-05-06T06:06:00.657Z,61.81
2023-05-06T06:08:34.343Z,61.73
2023-05-06T06:11:03.860Z,60.43
2023-05-06T06:13:35.577Z,59.07
2023-05-06T06:16:02.746Z,57.27
2023-05-06T06:18:30.084Z,56.01
2023-05-06T06:21:02.373Z,55.40
2023-05-06T06:23:29.268Z,54.63
2023-05-06T06:26:01.826Z,53.57
2023-05-06T06:28:28.957Z,52.81
2023-05-06T06:30:55.814Z,51.92
2023-05-06T06:33:22.604Z,52.56
2023-05-06T06:35:59.801Z,52.42
2023-05-06T06:38:26.789Z,52.83
2023-05-06T06:40:53.691Z,51.43
2023-05-06T06:43:20.903Z,51.10
2023-05-06T06:45:47.881Z,49.65
2023-05-06T06:48:15.007Z,49.07
2023-05-06T06:50:42.087Z,48.76
2023-05-06T06:53:09.677Z,47.42
2023-05-06T06:55:36.899Z,47.13
2023-05-06T06:58:03.857Z,45.43
2023-05-06T07:00:31.500Z,44.22
2023-05-06T07:02:58.388Z,43.38
2023-05-06T07:05:26.652Z,41.78
2023-05-06T07:07:54.222Z,40.24
2023-05-06T07:10:21.722Z,39.97
2023-05-06T07:12:48.796Z,38.73
2023-05-06T07:15:15.690Z,39.07
2023-05-06T07:17:42.638Z,38.70
2023-05-06T07:20:10.302Z,38.54
2023-05-06T07:22:38.574Z,37.96
2023-05-06T07:25:06.424Z,36.61
2023-05-06T07:27:33.437Z,36.40
2023-05-06T07:30:00.384Z,35.56
2023-05-06T07:32:27.301Z,35.61
2023-05-06T07:34:54.248Z,35.86
2023-05-06T07:37:21.128Z,35.84
2023-05-06T07:39:48.249Z,35.84
2023-05-06T07:42:15.150Z,35.61
2023-05-06T07:44:41.914Z,35.07
2023-05-06T07:47:09.020Z,34.33
2023-05-06T07:49:36.343Z,34.17
2023-05-06T07:52:03.675Z,34.60
2023-05-06T07:54:31.077Z,34.30
2023-05-06T07:56:58.044Z,33.97
2023-05-06T07:59:24.883Z,33.73
2023-05-06T08:01:52.205Z,33.15
2023-05-06T08:04:19.511Z,33.58
2023-05-06T08:06:46.407Z,33.82
2023-05-06T08:09:22.098Z,33.57
2023-05-06T08:11:55.240Z,33.17
2023-05-06T08:14:21.948Z,33.30
2023-05-06T08:16:49.977Z,33.42
2023-05-06T08:19:17.327Z,33.44
2023-05-06T08:21:44.097Z,33.11
2023-05-06T08:24:13.267Z,33.37
2023-05-06T08:26:45.266Z,33.05
2023-05-06T08:29:13.018Z,33.24
2023-05-06T08:31:39.907Z,33.18
2023-05-06T08:34:06.884Z,32.40
2023-05-06T08:36:33.814Z,32.78
2023-05-06T08:39:00.713Z,32.43
2023-05-06T08:41:27.636Z,32.56
2023-05-06T08:43:55.003Z,31.24
2023-05-06T08:46:22.378Z,31.11
2023-05-06T08:48:54.371Z,30.63
2023-05-06T08:51:22.187Z,30.89
2023-05-06T08:53:51.087Z,31.24
2023-05-06T08:56:18.045Z,30.07
2023-05-06T08:58:48.095Z,30.05
2023-05-06T09:01:20.011Z,29.81
2023-05-06T09:03:47.480Z,29.77
2023-05-06T09:06:14.245Z,28.53
2023-05-06T09:08:41.128Z,28.11
2023-05-06T09:11:21.402Z,27.27
2023-05-06T09:13:53.836Z,26.65
2023-05-06T09:16:28.741Z,25.66
2023-05-06T09:18:56.100Z,24.75
2023-05-06T09:21:29.325Z,24.87
2023-05-06T09:23:57.544Z,24.25
2023-05-06T09:26:24.453Z,23.37
2023-05-06T09:28:51.338Z,23.46
2023-05-06T09:31:18.307Z,22.96
2023-05-06T09:33:45.142Z,22.68
2023-05-06T09:36:12.925Z,22.27
2023-05-06T09:38:40.478Z,22.29
2023-05-06T09:41:07.504Z,22.04
2023-05-06T09:43:35.846Z,21.84
2023-05-06T09:46:08.448Z,21.58
2023-05-06T09:48:35.412Z,21.73
2023-05-06T09:51:03.002Z,21.14
2023-05-06T09:53:30.964Z,20.71
2023-05-06T09:55:58.702Z,20.15
2023-05-06T09:58:25.438Z,19.86
2023-05-06T10:00:52.380Z,19.63
2023-05-06T10:03:19.934Z,19.93
2023-05-06T10:05:47.050Z,20.18
2023-05-06T10:08:17.924Z,20.03
2023-05-06T10:10:48.195Z,19.89
2023-05-06T10:13:15.854Z,19.72
2023-05-06T10:15:45.740Z,19.22
2023-05-06T10:18:15.114Z,18.98
2023-05-06T10:20:42.043Z,19.18
2023-05-06T10:23:21.061Z,19.20
2023-05-06T10:25:51.346Z,19.26
2023-05-06T10:28:21.048Z,18.99
2023-05-06T10:30:51.602Z,18.82
2023-05-06T10:33:19.722Z,18.73
2023-05-06T10:35:57.921Z,18.66
2023-05-06T10:38:35.402Z,18.44
2023-05-06T10:41:02.328Z,18.55
2023-05-06T10:43:32.823Z,18.58
2023-05-06T10:46:06.530Z,18.09
2023-05-06T10:48:37.183Z,17.81
2023-05-06T10:51:13.371Z,17.95
2023-05-06T10:53:59.699Z,18.08
2023-05-06T10:56:26.523Z,18.21
2023-05-06T10:58:54.464Z,18.29
2023-05-06T11:01:27.901Z,18.00
2023-05-06T11:04:14.032Z,17.67
2023-05-06T11:06:50.353Z,17.55
2023-05-06T11:09:26.294Z,17.50
2023-05-06T11:12:01.464Z,17.11
2023-05-06T11:14:35.032Z,16.97
2023-05-06T11:17:06.478Z,16.96
2023-05-06T11:19:34.749Z,16.89
2023-05-06T11:22:03.438Z,16.85
2023-05-06T11:24:42.293Z,16.82
2023-05-06T11:27:10.131Z,16.71
2023-05-06T11:29:37.076Z,16.77
2023-05-06T11:32:05.191Z,17.00
2023-05-06T11:34:32.470Z,17.11
2023-05-06T11:37:04.146Z,17.22
2023-05-06T11:39:38.773Z,17.49
2023-05-06T11:42:08.101Z,17.84
2023-05-06T11:44:38.537Z,17.85
2023-05-06T11:47:07.378Z,17.44
2023-05-06T11:49:39.749Z,17.60
2023-05-06T11:52:10.651Z,17.57
2023-05-06T11:54:41.553Z,17.61
2023-05-06T11:57:09.153Z,17.53
2023-05-06T11:59:37.401Z,17.46
2023-05-06T12:02:08.441Z,17.21
2023-05-06T12:04:42.783Z,17.00
2023-05-06T12:07:11.349Z,16.50
2023-05-06T12:09:40.305Z,16.91
2023-05-06T12:12:07.401Z,17.33
2023-05-06T12:14:35.816Z,17.77
2023-05-06T12:17:03.065Z,18.19
2023-05-06T12:19:30.209Z,18.50
2023-05-06T12:22:14.092Z,18.48
2023-05-06T12:24:40.958Z,18.56
2023-05-06T12:27:07.936Z,18.65
2023-05-06T12:29:35.010Z,18.23
2023-05-06T12:32:11.686Z,18.11
2023-05-06T12:34:39.909Z,18.11
2023-05-06T12:37:08.107Z,17.97
2023-05-06T12:39:36.017Z,17.83
2023-05-06T12:42:03.379Z,17.66
2023-05-06T12:44:37.906Z,17.90
2023-05-06T12:47:21.867Z,17.66
2023-05-06T12:50:00.665Z,17.60
2023-05-06T12:52:29.271Z,17.50
2023-05-06T12:54:56.278Z,17.46
2023-05-06T12:57:23.143Z,17.42
2023-05-06T12:59:50.151Z,17.49
2023-05-06T13:02:17.157Z,17.17
2023-05-06T13:04:46.133Z,17.08
2023-05-06T13:07:13.040Z,17.10
2023-05-06T13:09:40.001Z,17.69
2023-05-06T13:12:07.281Z,18.13
2023-05-06T13:14:53.128Z,18.57
2023-05-06T13:17:20.262Z,18.20
2023-05-06T13:19:47.643Z,18.23
2023-05-06T13:22:14.516Z,17.95
2023-05-06T13:24:41.601Z,18.00
2023-05-06T13:27:08.608Z,17.82
2023-05-06T13:29:35.806Z,17.79
2023-05-06T13:32:04.296Z,17.83
2023-05-06T13:34:32.261Z,18.06
2023-05-06T13:36:59.113Z,18.37
2023-05-06T13:39:25.921Z,18.31
2023-05-06T13:41:53.628Z,18.28
2023-05-06T13:44:26.176Z,18.39
2023-05-06T13:46:53.005Z,18.67
2023-05-06T13:49:19.950Z,18.88
2023-05-06T13:51:46.815Z,19.18
2023-05-06T13:54:14.301Z,19.19
2023-05-06T13:56:41.452Z,19.20
2023-05-06T13:59:09.560Z,19.43
2023-05-06T14:01:36.960Z,19.12
2023-05-06T14:04:04.046Z,19.32
2023-05-06T14:06:31.301Z,19.49
2023-05-06T14:08:58.085Z,19.50
2023-05-06T14:11:24.920Z,19.56
2023-05-06T14:13:52.109Z,19.93
2023-05-06T14:16:18.998Z,19.89
2023-05-06T14:18:46.049Z,19.94
2023-05-06T14:21:12.862Z,20.32
2023-05-06T14:23:39.839Z,20.63
2023-05-06T14:26:07.191Z,20.67
2023-05-06T14:28:34.138Z,20.78
2023-05-06T14:31:01.389Z,20.77
2023-05-06T14:33:28.281Z,20.76
2023-05-06T14:35:55.253Z,20.97
2023-05-06T14:38:22.077Z,21.25
2023-05-06T14:40:49.825Z,21.41
2023-05-06T14:43:16.727Z,21.61
2023-05-06T14:45:43.807Z,21.83
2023-05-06T14:48:10.807Z,22.01
2023-05-06T14:50:38.110Z,22.33
2023-05-06T14:53:05.006Z,22.47
2023-05-06T14:55:33.202Z,22.57
2023-05-06T14:58:05.553Z,22.34
2023-05-06T15:00:32.559Z,22.69
2023-05-06T15:02:59.654Z,22.84
2023-05-06T15:05:26.999Z,23.11
2023-05-06T15:07:54.747Z,23.44
2023-05-06T15:10:22.106Z,23.58
2023-05-06T15:12:50.900Z,23.86
2023-05-06T15:15:18.185Z,24.08
2023-05-06T15:17:45.138Z,24.08
2023-05-06T15:20:12.923Z,24.28
2023-05-06T15:22:40.155Z,24.45
2023-05-06T15:25:09.300Z,24.92
2023-05-06T15:27:37.896Z,24.98
2023-05-06T15:30:06.102Z,25.60
2023-05-06T15:32:33.692Z,26.05
2023-05-06T15:35:00.823Z,26.25
2023-05-06T15:37:27.789Z,26.75
2023-05-06T15:39:54.977Z,26.78
2023-05-06T15:42:22.369Z,26.74
2023-05-06T15:44:54.547Z,26.88
2023-05-06T15:47:21.719Z,27.24
2023-05-06T15:49:54.969Z,27.47
2023-05-06T15:52:22.508Z,27.58
2023-05-06T15:54:50.093Z,27.93
2023-05-06T15:57:17.470Z,28.46
2023-05-06T15:59:44.429Z,29.11
2023-05-06T16:04:41.795Z,30.16
2023-05-06T16:07:09.353Z,30.46
2023-05-06T16:09:36.624Z,30.83
2023-05-06T16:12:04.458Z,31.16
2023-05-06T16:14:32.602Z,31.73
2023-05-06T16:16:59.714Z,31.90
2023-05-06T16:19:26.822Z,32.04
2023-05-06T16:21:53.887Z,32.37
2023-05-06T16:24:25.952Z,32.64
2023-05-06T16:26:54.684Z,33.15
2023-05-06T16:29:21.606Z,33.59
2023-05-06T16:31:48.780Z,33.94
2023-05-06T16:34:15.992Z,34.38
2023-05-06T16:36:43.276Z,34.89
2023-05-06T16:39:10.715Z,35.28
2023-05-06T16:41:38.031Z,35.63
2023-05-06T16:44:05.147Z,35.87
2023-05-06T16:46:32.847Z,36.14
2023-05-06T16:49:00.777Z,36.38
2023-05-06T16:51:28.359Z,36.76
2023-05-06T16:53:55.818Z,37.19
2023-05-06T16:56:36.755Z,37.64
2023-05-06T16:59:11.187Z,38.03
2023-05-06T17:01:38.209Z,38.19
2023-05-06T17:04:05.072Z,38.41
2023-05-06T17:06:33.557Z,38.66
2023-05-06T17:09:00.929Z,38.85
2023-05-06T17:11:27.920Z,39.08
2023-05-06T17:13:54.777Z,39.40
2023-05-06T17:16:22.582Z,39.68
2023-05-06T17:18:49.461Z,39.77
2023-05-06T17:21:16.350Z,40.24
2023-05-06T17:23:43.689Z,40.29
2023-05-06T17:26:10.733Z,40.63
2023-05-06T17:28:37.785Z,41.26
2023-05-06T17:31:05.076Z,41.70
2023-05-06T17:33:32.188Z,41.98
2023-05-06T17:35:59.514Z,42.62
2023-05-06T17:38:26.404Z,42.86
2023-05-06T17:40:53.306Z,43.21
2023-05-06T17:43:20.739Z,43.56
2023-05-06T17:45:47.905Z,43.92
2023-05-06T17:48:14.671Z,44.25
2023-05-06T17:50:41.521Z,44.49
2023-05-06T17:53:13.637Z,44.39
2023-05-06T17:55:40.926Z,44.87
2023-05-06T17:58:07.675Z,45.05
2023-05-06T18:00:34.754Z,45.40
2023-05-06T18:03:01.655Z,45.58
2023-05-06T18:05:29.085Z,45.81
2023-05-06T18:07:55.989Z,45.55
2023-05-06T18:10:22.790Z,45.60
2023-05-06T18:12:49.912Z,45.89
2023-05-06T18:15:16.920Z,46.18
2023-05-06T18:17:45.288Z,46.46
2023-05-06T18:20:12.456Z,46.77
2023-05-06T18:22:42.416Z,46.99
2023-05-06T18:25:09.611Z,47.38
2023-05-06T18:27:36.772Z,47.29
2023-05-06T18:30:04.539Z,47.57
2023-05-06T18:32:33.793Z,47.80
2023-05-06T18:35:00.613Z,47.77
2023-05-06T18:37:32.679Z,48.11
2023-05-06T18:39:59.513Z,48.44
2023-05-06T18:42:27.259Z,48.30
2023-05-06T18:44:54.127Z,48.55
2023-05-06T18:47:21.138Z,48.39
2023-05-06T18:49:48.239Z,48.65
2023-05-06T18:52:17.249Z,49.16
2023-05-06T18:54:44.214Z,49.23
2023-05-06T18:57:11.578Z,49.31
2023-05-06T18:59:38.491Z,49.84
2023-05-06T19:02:05.904Z,50.13
2023-05-06T19:04:32.890Z,50.49
2023-05-06T19:07:00.801Z,50.77
2023-05-06T19:09:27.873Z,50.92
2023-05-06T19:11:55.245Z,50.86
2023-05-06T19:14:23.544Z,51.03
2023-05-06T19:16:51.961Z,51.04
2023-05-06T19:19:19.076Z,51.02
2023-05-06T19:21:46.006Z,51.08
2023-05-06T19:24:12.770Z,51.49
2023-05-06T19:26:40.009Z,51.79
2023-05-06T19:29:06.869Z,52.07
2023-05-06T19:31:34.422Z,52.13
2023-05-06T19:34:01.751Z,52.38
2023-05-06T19:36:28.980Z,52.65
2023-05-06T19:38:55.931Z,52.47
2023-05-06T19:41:22.722Z,52.68
2023-05-06T19:43:51.374Z,52.82
2023-05-06T19:46:18.245Z,52.82
2023-05-06T19:48:45.784Z,53.16
2023-05-06T19:51:12.702Z,53.67
2023-05-06T19:53:39.543Z,53.77
2023-05-06T19:56:11.071Z,53.89
2023-05-06T19:58:38.565Z,54.41
2023-05-06T20:01:05.487Z,54.29
2023-05-06T20:03:33.259Z,54.34
2023-05-06T20:06:00.626Z,54.58
2023-05-06T20:08:27.514Z,53.95
2023-05-06T20:10:54.662Z,53.92
2023-05-06T20:13:21.940Z,54.25
2023-05-06T20:15:49.873Z,54.50
2023-05-06T20:18:16.762Z,54.52
2023-05-06T20:20:44.006Z,53.99
2023-05-06T20:23:11.212Z,54.10
2023-05-06T20:25:38.064Z,54.34
2023-05-06T20:28:06.392Z,54.47
2023-05-06T20:30:34.347Z,54.21
2023-05-06T20:33:01.431Z,54.00
2023-05-06T20:35:37.630Z,53.95
2023-05-06T20:38:05.554Z,54.30
2023-05-06T20:40:35.050Z,54.62
2023-05-06T20:43:02.023Z,54.75
2023-05-06T20:45:30.550Z,54.97
2023-05-06T20:47:57.575Z,54.91
2023-05-06T20:50:24.538Z,55.14
2023-05-06T20:52:52.348Z,55.08
2023-05-06T20:55:22.482Z,55.05
2023-05-06T20:57:49.391Z,54.82
2023-05-06T21:00:16.326Z,54.93
2023-05-06T21:02:43.399Z,55.15
2023-05-06T21:05:10.887Z,55.19
2023-05-06T21:07:41.828Z,55.05
2023-05-06T21:10:17.089Z,55.06
2023-05-06T21:12:48.746Z,55.19
2023-05-06T21:15:15.804Z,55.69
2023-05-06T21:17:42.902Z,55.84
2023-05-06T21:20:10.960Z,56.02
2023-05-06T21:22:38.059Z,55.78
2023-05-06T21:25:05.985Z,55.69
2023-05-06T21:27:33.323Z,55.75
2023-05-06T21:30:00.192Z,56.33
2023-05-06T21:32:32.346Z,55.78
2023-05-06T21:35:01.348Z,55.94
2023-05-06T21:37:28.236Z,55.69
2023-05-06T21:40:00.282Z,55.88
2023-05-06T21:42:27.072Z,56.12
2023-05-06T21:44:53.833Z,56.19
2023-05-06T21:47:20.848Z,56.21
2023-05-06T21:49:47.867Z,56.05
2023-05-06T21:52:14.956Z,55.99
2023-05-06T21:54:41.852Z,55.54
2023-05-06T21:57:08.733Z,55.39
2023-05-06T21:59:40.885Z,54.85
2023-05-06T22:02:12.854Z,55.02
2023-05-06T22:04:40.022Z,55.13
2023-05-06T22:07:06.775Z,54.98
2023-05-06T22:09:34.085Z,55.15
2023-05-06T22:12:06.143Z,55.26
2023-05-06T22:14:40.554Z,55.64
2023-05-06T22:17:09.988Z,55.56
2023-05-06T22:19:37.912Z,55.98
2023-05-06T22:22:05.199Z,55.81
2023-05-06T22:24:32.217Z,55.43
2023-05-06T22:26:59.084Z,55.17
2023-05-06T22:29:25.925Z,54.47
2023-05-06T22:31:52.968Z,54.32
2023-05-06T22:34:19.806Z,53.72
2023-05-06T22:36:46.552Z,53.92
2023-05-06T22:39:13.537Z,53.91
2023-05-06T22:41:40.455Z,53.47
2023-05-06T22:44:07.211Z,53.39
2023-05-06T22:46:34.404Z,53.56
2023-05-06T22:49:01.361Z,53.45
2023-05-06T22:51:28.625Z,53.27
2023-05-06T22:54:00.531Z,52.90
2023-05-06T22:56:27.268Z,53.00
2023-05-06T22:58:54.073Z,52.86
2023-05-06T23:01:21.129Z,52.96
2023-05-06T23:03:48.098Z,53.30
2023-05-06T23:06:14.948Z,53.21
2023-05-06T23:08:41.793Z,53.04
2023-05-06T23:11:08.732Z,52.79
2023-05-06T23:13:35.930Z,52.78
2023-05-06T23:16:03.332Z,52.95
2023-05-06T23:18:30.305Z,52.74
2023-05-06T23:20:57.048Z,53.00
2023-05-06T23:23:24.580Z,53.05
2023-05-06T23:25:52.811Z,52.97
2023-05-06T23:28:20.455Z,52.88
2023-05-06T23:30:47.356Z,52.71
2023-05-06T23:33:14.306Z,52.84
2023-05-06T23:35:41.217Z,52.98
2023-05-06T23:38:08.123Z,53.18
2023-05-06T23:40:34.862Z,52.83
2023-05-06T23:43:01.708Z,52.73
2023-05-06T23:45:28.684Z,52.69
2023-05-06T23:47:56.578Z,52.74
2023-05-06T23:50:23.488Z,53.22
2023-05-06T23:52:50.330Z,53.28
2023-05-06T23:55:17.869Z,53.25
2023-05-06T23:57:44.830Z,53.50
